sensor_id;sensor_type;location;lat;lon;timestamp;P1;durP1;ratioP1;P2;durP2;ratioP2
76433;SDS011;65265;53.200;6.080;2023-04-24T00:02:52;4.88;;;3.25;;
76433;SDS011;65265;53.200;6.080;2023-04-24T00:07:48;5.03;;;3.10;;
76433;SDS011;65265;53.200;6.080;2023-04-24T00:12:42;4.38;;;3.00;;
76433;SDS011;65265;53.200;6.080;2023-04-24T00:17:34;4.00;;;2.78;;
76433;SDS011;65265;53.200;6.080;2023-04-24T00:22:25;3.85;;;2.53;;
76433;SDS011;65265;53.200;6.080;2023-04-24T00:27:19;5.63;;;3.42;;
76433;SDS011;65265;53.200;6.080;2023-04-24T00:32:10;4.53;;;2.35;;
76433;SDS011;65265;53.200;6.080;2023-04-24T00:37:17;3.28;;;2.17;;
76433;SDS011;65265;53.200;6.080;2023-04-24T00:42:08;3.05;;;1.80;;
76433;SDS011;65265;53.200;6.080;2023-04-24T00:47:02;5.88;;;2.55;;
76433;SDS011;65265;53.200;6.080;2023-04-24T00:51:54;4.88;;;4.18;;
76433;SDS011;65265;53.200;6.080;2023-04-24T00:56:46;4.35;;;3.40;;
76433;SDS011;65265;53.200;6.080;2023-04-24T01:01:38;3.38;;;2.38;;
76433;SDS011;65265;53.200;6.080;2023-04-24T01:06:33;4.50;;;2.58;;
76433;SDS011;65265;53.200;6.080;2023-04-24T01:11:25;4.05;;;2.25;;
76433;SDS011;65265;53.200;6.080;2023-04-24T01:16:17;5.07;;;2.45;;
76433;SDS011;65265;53.200;6.080;2023-04-24T01:21:10;3.88;;;2.53;;
76433;SDS011;65265;53.200;6.080;2023-04-24T01:26:06;4.20;;;2.60;;
76433;SDS011;65265;53.200;6.080;2023-04-24T01:35:49;3.17;;;2.13;;
76433;SDS011;65265;53.200;6.080;2023-04-24T01:40:40;4.82;;;2.08;;
76433;SDS011;65265;53.200;6.080;2023-04-24T01:45:34;6.50;;;5.35;;
76433;SDS011;65265;53.200;6.080;2023-04-24T01:50:25;5.70;;;3.60;;
76433;SDS011;65265;53.200;6.080;2023-04-24T01:55:17;3.95;;;2.53;;
76433;SDS011;65265;53.200;6.080;2023-04-24T02:00:09;5.63;;;4.78;;
76433;SDS011;65265;53.200;6.080;2023-04-24T02:05:05;3.85;;;2.65;;
76433;SDS011;65265;53.200;6.080;2023-04-24T02:09:57;3.83;;;2.50;;
76433;SDS011;65265;53.200;6.080;2023-04-24T02:14:48;4.63;;;2.60;;
76433;SDS011;65265;53.200;6.080;2023-04-24T02:19:40;4.00;;;2.85;;
76433;SDS011;65265;53.200;6.080;2023-04-24T02:24:33;3.55;;;2.42;;
76433;SDS011;65265;53.200;6.080;2023-04-24T02:34:15;4.65;;;3.28;;
76433;SDS011;65265;53.200;6.080;2023-04-24T02:39:07;5.38;;;3.17;;
76433;SDS011;65265;53.200;6.080;2023-04-24T02:44:00;5.97;;;5.38;;
76433;SDS011;65265;53.200;6.080;2023-04-24T02:48:52;6.30;;;3.78;;
76433;SDS011;65265;53.200;6.080;2023-04-24T02:53:43;5.82;;;3.63;;
76433;SDS011;65265;53.200;6.080;2023-04-24T02:58:34;7.88;;;4.53;;
76433;SDS011;65265;53.200;6.080;2023-04-24T03:03:28;6.40;;;4.80;;
76433;SDS011;65265;53.200;6.080;2023-04-24T03:08:20;7.38;;;4.57;;
76433;SDS011;65265;53.200;6.080;2023-04-24T03:13:11;6.95;;;4.35;;
76433;SDS011;65265;53.200;6.080;2023-04-24T03:18:03;9.00;;;5.90;;
76433;SDS011;65265;53.200;6.080;2023-04-24T03:22:56;8.05;;;5.25;;
76433;SDS011;65265;53.200;6.080;2023-04-24T03:27:48;8.30;;;7.03;;
76433;SDS011;65265;53.200;6.080;2023-04-24T03:32:39;5.22;;;3.65;;
76433;SDS011;65265;53.200;6.080;2023-04-24T03:37:30;4.88;;;2.83;;
76433;SDS011;65265;53.200;6.080;2023-04-24T03:42:23;3.70;;;2.53;;
76433;SDS011;65265;53.200;6.080;2023-04-24T03:47:15;3.08;;;1.52;;
76433;SDS011;65265;53.200;6.080;2023-04-24T03:52:06;2.65;;;1.20;;
76433;SDS011;65265;53.200;6.080;2023-04-24T03:56:57;1.40;;;1.02;;
76433;SDS011;65265;53.200;6.080;2023-04-24T04:01:50;1.33;;;0.60;;
76433;SDS011;65265;53.200;6.080;2023-04-24T04:06:42;1.85;;;0.75;;
76433;SDS011;65265;53.200;6.080;2023-04-24T04:11:34;1.38;;;0.40;;
76433;SDS011;65265;53.200;6.080;2023-04-24T04:16:26;2.03;;;0.52;;
76433;SDS011;65265;53.200;6.080;2023-04-24T04:21:19;1.95;;;1.85;;
76433;SDS011;65265;53.200;6.080;2023-04-24T04:26:10;1.73;;;0.68;;
76433;SDS011;65265;53.200;6.080;2023-04-24T04:31:02;1.75;;;0.63;;
76433;SDS011;65265;53.200;6.080;2023-04-24T04:35:54;2.80;;;0.73;;
76433;SDS011;65265;53.200;6.080;2023-04-24T04:40:48;2.70;;;1.08;;
76433;SDS011;65265;53.200;6.080;2023-04-24T04:45:39;3.35;;;1.65;;
76433;SDS011;65265;53.200;6.080;2023-04-24T04:50:31;2.10;;;1.13;;
76433;SDS011;65265;53.200;6.080;2023-04-24T04:55:22;3.03;;;1.45;;
76433;SDS011;65265;53.200;6.080;2023-04-24T05:00:16;1.52;;;0.40;;
76433;SDS011;65265;53.200;6.080;2023-04-24T05:05:08;3.83;;;2.45;;
76433;SDS011;65265;53.200;6.080;2023-04-24T05:09:59;2.58;;;1.38;;
76433;SDS011;65265;53.200;6.080;2023-04-24T05:14:51;3.25;;;2.05;;
76433;SDS011;65265;53.200;6.080;2023-04-24T05:19:44;3.22;;;1.83;;
76433;SDS011;65265;53.200;6.080;2023-04-24T05:24:36;2.95;;;1.90;;
76433;SDS011;65265;53.200;6.080;2023-04-24T05:29:28;4.60;;;2.55;;
76433;SDS011;65265;53.200;6.080;2023-04-24T05:34:20;4.07;;;1.83;;
76433;SDS011;65265;53.200;6.080;2023-04-24T05:39:13;5.70;;;3.45;;
76433;SDS011;65265;53.200;6.080;2023-04-24T05:44:05;6.55;;;3.22;;
76433;SDS011;65265;53.200;6.080;2023-04-24T05:48:57;3.63;;;2.28;;
76433;SDS011;65265;53.200;6.080;2023-04-24T05:53:48;5.80;;;1.85;;
76433;SDS011;65265;53.200;6.080;2023-04-24T05:58:41;4.28;;;2.40;;
76433;SDS011;65265;53.200;6.080;2023-04-24T06:03:33;3.35;;;3.08;;
76433;SDS011;65265;53.200;6.080;2023-04-24T06:08:24;1.60;;;0.80;;
76433;SDS011;65265;53.200;6.080;2023-04-24T06:13:16;5.85;;;0.77;;
76433;SDS011;65265;53.200;6.080;2023-04-24T06:18:09;2.03;;;0.68;;
76433;SDS011;65265;53.200;6.080;2023-04-24T06:23:01;1.73;;;0.57;;
76433;SDS011;65265;53.200;6.080;2023-04-24T06:27:52;1.65;;;0.65;;
76433;SDS011;65265;53.200;6.080;2023-04-24T06:32:43;2.20;;;0.75;;
76433;SDS011;65265;53.200;6.080;2023-04-24T06:37:36;3.33;;;1.05;;
76433;SDS011;65265;53.200;6.080;2023-04-24T06:42:28;3.00;;;1.10;;
76433;SDS011;65265;53.200;6.080;2023-04-24T06:47:19;3.92;;;1.17;;
76433;SDS011;65265;53.200;6.080;2023-04-24T06:52:11;2.10;;;0.85;;
76433;SDS011;65265;53.200;6.080;2023-04-24T06:57:03;2.50;;;1.33;;
76433;SDS011;65265;53.200;6.080;2023-04-24T07:01:56;3.28;;;1.67;;
76433;SDS011;65265;53.200;6.080;2023-04-24T07:06:47;3.20;;;1.92;;
76433;SDS011;65265;53.200;6.080;2023-04-24T07:11:41;6.22;;;3.15;;
76433;SDS011;65265;53.200;6.080;2023-04-24T07:16:34;5.90;;;3.65;;
76433;SDS011;65265;53.200;6.080;2023-04-24T07:21:25;11.65;;;5.43;;
76433;SDS011;65265;53.200;6.080;2023-04-24T07:26:17;9.63;;;5.13;;
76433;SDS011;65265;53.200;6.080;2023-04-24T07:31:08;11.40;;;5.65;;
76433;SDS011;65265;53.200;6.080;2023-04-24T07:36:02;10.57;;;4.82;;
76433;SDS011;65265;53.200;6.080;2023-04-24T07:40:55;11.48;;;6.28;;
76433;SDS011;65265;53.200;6.080;2023-04-24T07:45:46;12.68;;;6.03;;
76433;SDS011;65265;53.200;6.080;2023-04-24T07:50:38;10.35;;;6.97;;
76433;SDS011;65265;53.200;6.080;2023-04-24T07:55:31;13.65;;;6.57;;
76433;SDS011;65265;53.200;6.080;2023-04-24T08:00:22;15.75;;;7.43;;
76433;SDS011;65265;53.200;6.080;2023-04-24T08:05:14;12.60;;;6.15;;
76433;SDS011;65265;53.200;6.080;2023-04-24T08:10:06;14.65;;;6.80;;
76433;SDS011;65265;53.200;6.080;2023-04-24T08:14:59;9.43;;;5.75;;
76433;SDS011;65265;53.200;6.080;2023-04-24T08:19:51;9.02;;;5.43;;
76433;SDS011;65265;53.200;6.080;2023-04-24T08:24:49;11.57;;;8.48;;
76433;SDS011;65265;53.200;6.080;2023-04-24T08:29:40;12.85;;;5.20;;
76433;SDS011;65265;53.200;6.080;2023-04-24T08:34:33;8.77;;;4.95;;
76433;SDS011;65265;53.200;6.080;2023-04-24T08:39:24;11.50;;;4.07;;
76433;SDS011;65265;53.200;6.080;2023-04-24T08:44:16;7.07;;;4.32;;
76433;SDS011;65265;53.200;6.080;2023-04-24T08:49:07;6.97;;;3.75;;
76433;SDS011;65265;53.200;6.080;2023-04-24T08:54:01;6.60;;;4.13;;
76433;SDS011;65265;53.200;6.080;2023-04-24T08:58:54;8.35;;;5.82;;
76433;SDS011;65265;53.200;6.080;2023-04-24T09:03:45;13.55;;;3.60;;
76433;SDS011;65265;53.200;6.080;2023-04-24T09:08:39;9.07;;;3.58;;
76433;SDS011;65265;53.200;6.080;2023-04-24T09:13:34;3.88;;;2.17;;
76433;SDS011;65265;53.200;6.080;2023-04-24T09:18:25;10.00;;;1.98;;
76433;SDS011;65265;53.200;6.080;2023-04-24T09:23:17;5.22;;;1.58;;
76433;SDS011;65265;53.200;6.080;2023-04-24T09:28:09;4.47;;;1.48;;
76433;SDS011;65265;53.200;6.080;2023-04-24T09:33:12;7.47;;;1.60;;
76433;SDS011;65265;53.200;6.080;2023-04-24T09:38:04;8.35;;;1.90;;
76433;SDS011;65265;53.200;6.080;2023-04-24T09:42:56;6.70;;;1.83;;
76433;SDS011;65265;53.200;6.080;2023-04-24T09:47:51;7.68;;;3.38;;
76433;SDS011;65265;53.200;6.080;2023-04-24T09:52:46;4.40;;;1.05;;
76433;SDS011;65265;53.200;6.080;2023-04-24T09:57:46;6.57;;;1.40;;
76433;SDS011;65265;53.200;6.080;2023-04-24T10:02:38;4.88;;;1.05;;
76433;SDS011;65265;53.200;6.080;2023-04-24T10:07:32;5.72;;;1.02;;
76433;SDS011;65265;53.200;6.080;2023-04-24T10:12:26;2.17;;;0.73;;
76433;SDS011;65265;53.200;6.080;2023-04-24T10:17:18;7.25;;;0.93;;
76433;SDS011;65265;53.200;6.080;2023-04-24T10:22:11;6.20;;;1.20;;
76433;SDS011;65265;53.200;6.080;2023-04-24T10:27:03;6.22;;;0.63;;
76433;SDS011;65265;53.200;6.080;2023-04-24T10:31:57;5.03;;;1.50;;
76433;SDS011;65265;53.200;6.080;2023-04-24T10:36:50;5.80;;;0.40;;
76433;SDS011;65265;53.200;6.080;2023-04-24T10:41:43;4.40;;;1.13;;
76433;SDS011;65265;53.200;6.080;2023-04-24T10:46:36;2.50;;;1.98;;
76433;SDS011;65265;53.200;6.080;2023-04-24T10:56:40;3.70;;;0.80;;
76433;SDS011;65265;53.200;6.080;2023-04-24T11:01:32;3.72;;;2.80;;
76433;SDS011;65265;53.200;6.080;2023-04-24T11:06:30;2.33;;;0.50;;
76433;SDS011;65265;53.200;6.080;2023-04-24T11:11:24;5.90;;;0.77;;
76433;SDS011;65265;53.200;6.080;2023-04-24T11:16:20;6.43;;;2.42;;
76433;SDS011;65265;53.200;6.080;2023-04-24T11:21:18;3.95;;;0.55;;
76433;SDS011;65265;53.200;6.080;2023-04-24T11:26:10;3.55;;;1.85;;
76433;SDS011;65265;53.200;6.080;2023-04-24T11:36:27;3.72;;;0.40;;
76433;SDS011;65265;53.200;6.080;2023-04-24T11:41:22;4.45;;;0.82;;
76433;SDS011;65265;53.200;6.080;2023-04-24T11:46:16;2.95;;;0.40;;
76433;SDS011;65265;53.200;6.080;2023-04-24T11:51:09;1.95;;;0.50;;
76433;SDS011;65265;53.200;6.080;2023-04-24T11:56:03;2.47;;;0.10;;
76433;SDS011;65265;53.200;6.080;2023-04-24T12:00:57;1.17;;;0.28;;
76433;SDS011;65265;53.200;6.080;2023-04-24T12:05:49;1.52;;;0.25;;
76433;SDS011;65265;53.200;6.080;2023-04-24T12:10:43;1.23;;;0.25;;
76433;SDS011;65265;53.200;6.080;2023-04-24T12:15:35;3.00;;;0.10;;
76433;SDS011;65265;53.200;6.080;2023-04-24T12:20:26;5.13;;;0.52;;
76433;SDS011;65265;53.200;6.080;2023-04-24T12:25:20;4.00;;;2.25;;
76433;SDS011;65265;53.200;6.080;2023-04-24T12:30:14;4.55;;;0.47;;
76433;SDS011;65265;53.200;6.080;2023-04-24T12:35:07;2.97;;;0.20;;
76433;SDS011;65265;53.200;6.080;2023-04-24T12:40:00;4.03;;;0.95;;
76433;SDS011;65265;53.200;6.080;2023-04-24T12:44:55;8.40;;;2.58;;
76433;SDS011;65265;53.200;6.080;2023-04-24T12:49:51;0.73;;;0.20;;
76433;SDS011;65265;53.200;6.080;2023-04-24T12:54:42;3.25;;;0.30;;
76433;SDS011;65265;53.200;6.080;2023-04-24T12:59:34;1.25;;;0.10;;
76433;SDS011;65265;53.200;6.080;2023-04-24T13:04:25;0.73;;;0.20;;
76433;SDS011;65265;53.200;6.080;2023-04-24T13:09:18;0.88;;;0.30;;
76433;SDS011;65265;53.200;6.080;2023-04-24T13:14:10;1.42;;;0.22;;
76433;SDS011;65265;53.200;6.080;2023-04-24T13:19:02;2.35;;;1.00;;
76433;SDS011;65265;53.200;6.080;2023-04-24T13:23:53;3.85;;;0.20;;
76433;SDS011;65265;53.200;6.080;2023-04-24T13:28:46;2.13;;;1.95;;
76433;SDS011;65265;53.200;6.080;2023-04-24T13:33:39;6.80;;;0.77;;
76433;SDS011;65265;53.200;6.080;2023-04-24T13:38:30;4.78;;;0.38;;
76433;SDS011;65265;53.200;6.080;2023-04-24T13:43:21;6.18;;;0.95;;
76433;SDS011;65265;53.200;6.080;2023-04-24T13:48:14;5.63;;;1.13;;
76433;SDS011;65265;53.200;6.080;2023-04-24T13:53:06;4.50;;;0.70;;
76433;SDS011;65265;53.200;6.080;2023-04-24T13:57:58;3.42;;;0.57;;
76433;SDS011;65265;53.200;6.080;2023-04-24T14:02:49;0.80;;;0.50;;
76433;SDS011;65265;53.200;6.080;2023-04-24T14:07:42;4.05;;;0.50;;
76433;SDS011;65265;53.200;6.080;2023-04-24T14:12:34;5.07;;;0.93;;
76433;SDS011;65265;53.200;6.080;2023-04-24T14:17:27;6.80;;;1.33;;
76433;SDS011;65265;53.200;6.080;2023-04-24T14:22:18;4.82;;;1.23;;
76433;SDS011;65265;53.200;6.080;2023-04-24T14:27:11;6.53;;;0.93;;
76433;SDS011;65265;53.200;6.080;2023-04-24T14:32:03;8.10;;;1.17;;
76433;SDS011;65265;53.200;6.080;2023-04-24T14:36:54;7.20;;;1.23;;
76433;SDS011;65265;53.200;6.080;2023-04-24T14:41:46;5.97;;;1.25;;
76433;SDS011;65265;53.200;6.080;2023-04-24T14:46:38;7.32;;;1.75;;
76433;SDS011;65265;53.200;6.080;2023-04-24T14:51:30;7.03;;;2.55;;
76433;SDS011;65265;53.200;6.080;2023-04-24T14:56:21;11.38;;;2.95;;
76433;SDS011;65265;53.200;6.080;2023-04-24T15:01:14;8.48;;;3.88;;
76433;SDS011;65265;53.200;6.080;2023-04-24T15:06:07;6.68;;;2.72;;
76433;SDS011;65265;53.200;6.080;2023-04-24T15:10:58;6.90;;;1.80;;
76433;SDS011;65265;53.200;6.080;2023-04-24T15:15:50;8.82;;;1.70;;
76433;SDS011;65265;53.200;6.080;2023-04-24T15:20:41;7.30;;;1.95;;
76433;SDS011;65265;53.200;6.080;2023-04-24T15:25:34;5.15;;;3.58;;
76433;SDS011;65265;53.200;6.080;2023-04-24T15:30:26;8.15;;;2.25;;
76433;SDS011;65265;53.200;6.080;2023-04-24T15:35:18;11.23;;;2.90;;
76433;SDS011;65265;53.200;6.080;2023-04-24T15:40:09;7.95;;;2.45;;
76433;SDS011;65265;53.200;6.080;2023-04-24T15:45:05;10.50;;;2.17;;
76433;SDS011;65265;53.200;6.080;2023-04-24T15:49:57;17.27;;;4.13;;
76433;SDS011;65265;53.200;6.080;2023-04-24T15:54:49;6.78;;;1.17;;
76433;SDS011;65265;53.200;6.080;2023-04-24T15:59:40;9.55;;;1.55;;
76433;SDS011;65265;53.200;6.080;2023-04-24T16:04:33;5.60;;;1.25;;
76433;SDS011;65265;53.200;6.080;2023-04-24T16:09:25;5.20;;;2.17;;
76433;SDS011;65265;53.200;6.080;2023-04-24T16:14:16;7.00;;;0.98;;
76433;SDS011;65265;53.200;6.080;2023-04-24T16:19:08;2.83;;;0.70;;
76433;SDS011;65265;53.200;6.080;2023-04-24T16:24:01;4.47;;;1.00;;
76433;SDS011;65265;53.200;6.080;2023-04-24T16:28:52;4.15;;;0.93;;
76433;SDS011;65265;53.200;6.080;2023-04-24T16:33:44;4.78;;;0.98;;
76433;SDS011;65265;53.200;6.080;2023-04-24T16:38:36;3.10;;;1.27;;
76433;SDS011;65265;53.200;6.080;2023-04-24T16:43:30;3.33;;;1.38;;
76433;SDS011;65265;53.200;6.080;2023-04-24T16:48:21;3.13;;;1.10;;
76433;SDS011;65265;53.200;6.080;2023-04-24T16:53:13;8.90;;;2.47;;
76433;SDS011;65265;53.200;6.080;2023-04-24T16:58:04;6.25;;;1.23;;
76433;SDS011;65265;53.200;6.080;2023-04-24T17:02:57;4.63;;;0.80;;
76433;SDS011;65265;53.200;6.080;2023-04-24T17:07:48;3.80;;;0.90;;
76433;SDS011;65265;53.200;6.080;2023-04-24T17:12:40;3.30;;;0.80;;
76433;SDS011;65265;53.200;6.080;2023-04-24T17:17:32;3.53;;;0.60;;
76433;SDS011;65265;53.200;6.080;2023-04-24T17:22:25;2.17;;;0.98;;
76433;SDS011;65265;53.200;6.080;2023-04-24T17:27:16;1.65;;;0.65;;
76433;SDS011;65265;53.200;6.080;2023-04-24T17:32:08;1.30;;;0.20;;
76433;SDS011;65265;53.200;6.080;2023-04-24T17:36:59;2.55;;;0.60;;
76433;SDS011;65265;53.200;6.080;2023-04-24T17:41:52;4.35;;;0.90;;
76433;SDS011;65265;53.200;6.080;2023-04-24T17:46:43;2.70;;;0.63;;
76433;SDS011;65265;53.200;6.080;2023-04-24T17:51:35;3.92;;;0.52;;
76433;SDS011;65265;53.200;6.080;2023-04-24T17:56:27;5.95;;;0.88;;
76433;SDS011;65265;53.200;6.080;2023-04-24T18:01:20;5.95;;;1.00;;
76433;SDS011;65265;53.200;6.080;2023-04-24T18:06:13;2.95;;;1.20;;
76433;SDS011;65265;53.200;6.080;2023-04-24T18:11:06;8.05;;;3.22;;
76433;SDS011;65265;53.200;6.080;2023-04-24T18:15:57;7.85;;;1.02;;
76433;SDS011;65265;53.200;6.080;2023-04-24T18:20:50;8.80;;;0.98;;
76433;SDS011;65265;53.200;6.080;2023-04-24T18:25:42;5.18;;;1.17;;
76433;SDS011;65265;53.200;6.080;2023-04-24T18:30:33;3.78;;;1.15;;
76433;SDS011;65265;53.200;6.080;2023-04-24T18:35:25;4.32;;;1.10;;
76433;SDS011;65265;53.200;6.080;2023-04-24T18:40:18;6.20;;;1.25;;
76433;SDS011;65265;53.200;6.080;2023-04-24T18:50:01;5.10;;;1.30;;
76433;SDS011;65265;53.200;6.080;2023-04-24T18:54:53;5.40;;;1.08;;
76433;SDS011;65265;53.200;6.080;2023-04-24T18:59:47;5.55;;;3.30;;
76433;SDS011;65265;53.200;6.080;2023-04-24T19:04:38;8.15;;;1.50;;
76433;SDS011;65265;53.200;6.080;2023-04-24T19:09:30;4.65;;;1.27;;
76433;SDS011;65265;53.200;6.080;2023-04-24T19:14:21;4.03;;;1.00;;
76433;SDS011;65265;53.200;6.080;2023-04-24T19:19:14;3.03;;;0.88;;
76433;SDS011;65265;53.200;6.080;2023-04-24T19:24:06;1.95;;;0.75;;
76433;SDS011;65265;53.200;6.080;2023-04-24T19:28:59;2.95;;;0.80;;
76433;SDS011;65265;53.200;6.080;2023-04-24T19:33:50;3.38;;;1.00;;
76433;SDS011;65265;53.200;6.080;2023-04-24T19:38:43;1.23;;;0.57;;
76433;SDS011;65265;53.200;6.080;2023-04-24T19:43:34;4.57;;;0.75;;
76433;SDS011;65265;53.200;6.080;2023-04-24T19:48:26;2.50;;;0.93;;
76433;SDS011;65265;53.200;6.080;2023-04-24T19:53:20;8.48;;;1.35;;
76433;SDS011;65265;53.200;6.080;2023-04-24T19:58:12;4.93;;;1.00;;
76433;SDS011;65265;53.200;6.080;2023-04-24T20:03:04;7.22;;;1.65;;
76433;SDS011;65265;53.200;6.080;2023-04-24T20:07:55;9.40;;;2.20;;
76433;SDS011;65265;53.200;6.080;2023-04-24T20:12:47;10.63;;;2.03;;
76433;SDS011;65265;53.200;6.080;2023-04-24T20:17:40;10.40;;;2.58;;
76433;SDS011;65265;53.200;6.080;2023-04-24T20:22:32;15.30;;;5.78;;
76433;SDS011;65265;53.200;6.080;2023-04-24T20:27:27;14.55;;;3.85;;
76433;SDS011;65265;53.200;6.080;2023-04-24T20:32:19;25.25;;;2.85;;
76433;SDS011;65265;53.200;6.080;2023-04-24T20:37:12;13.88;;;3.15;;
76433;SDS011;65265;53.200;6.080;2023-04-24T20:42:04;13.30;;;4.45;;
76433;SDS011;65265;53.200;6.080;2023-04-24T20:46:56;11.45;;;3.45;;
76433;SDS011;65265;53.200;6.080;2023-04-24T20:51:48;13.88;;;2.33;;
76433;SDS011;65265;53.200;6.080;2023-04-24T20:56:40;12.85;;;4.18;;
76433;SDS011;65265;53.200;6.080;2023-04-24T21:01:32;15.63;;;2.70;;
76433;SDS011;65265;53.200;6.080;2023-04-24T21:06:23;15.30;;;2.10;;
76433;SDS011;65265;53.200;6.080;2023-04-24T21:11:15;14.05;;;2.88;;
76433;SDS011;65265;53.200;6.080;2023-04-24T21:16:07;11.75;;;1.83;;
76433;SDS011;65265;53.200;6.080;2023-04-24T21:20:59;14.07;;;3.05;;
76433;SDS011;65265;53.200;6.080;2023-04-24T21:25:50;8.73;;;1.70;;
76433;SDS011;65265;53.200;6.080;2023-04-24T21:30:42;10.88;;;2.75;;
76433;SDS011;65265;53.200;6.080;2023-04-24T21:35:35;12.13;;;1.85;;
76433;SDS011;65265;53.200;6.080;2023-04-24T21:40:26;11.15;;;2.05;;
76433;SDS011;65265;53.200;6.080;2023-04-24T21:45:18;11.88;;;2.35;;
76433;SDS011;65265;53.200;6.080;2023-04-24T21:50:10;10.88;;;1.80;;
76433;SDS011;65265;53.200;6.080;2023-04-24T21:55:03;12.85;;;2.17;;
76433;SDS011;65265;53.200;6.080;2023-04-24T21:59:55;8.43;;;1.65;;
76433;SDS011;65265;53.200;6.080;2023-04-24T22:04:47;13.23;;;2.83;;
76433;SDS011;65265;53.200;6.080;2023-04-24T22:09:39;11.27;;;2.05;;
76433;SDS011;65265;53.200;6.080;2023-04-24T22:14:32;12.90;;;1.67;;
76433;SDS011;65265;53.200;6.080;2023-04-24T22:19:23;6.72;;;1.25;;
76433;SDS011;65265;53.200;6.080;2023-04-24T22:24:17;13.63;;;2.85;;
76433;SDS011;65265;53.200;6.080;2023-04-24T22:29:09;6.97;;;2.05;;
76433;SDS011;65265;53.200;6.080;2023-04-24T22:34:01;10.85;;;1.67;;
76433;SDS011;65265;53.200;6.080;2023-04-24T22:38:53;18.23;;;4.03;;
76433;SDS011;65265;53.200;6.080;2023-04-24T22:43:44;10.30;;;1.45;;
76433;SDS011;65265;53.200;6.080;2023-04-24T22:48:36;4.50;;;1.15;;
76433;SDS011;65265;53.200;6.080;2023-04-24T22:53:29;8.55;;;1.33;;
76433;SDS011;65265;53.200;6.080;2023-04-24T22:58:20;11.75;;;1.85;;
76433;SDS011;65265;53.200;6.080;2023-04-24T23:03:12;5.75;;;1.67;;
76433;SDS011;65265;53.200;6.080;2023-04-24T23:08:03;6.38;;;1.30;;
76433;SDS011;65265;53.200;6.080;2023-04-24T23:12:56;9.75;;;1.73;;
76433;SDS011;65265;53.200;6.080;2023-04-24T23:17:48;9.30;;;1.38;;
76433;SDS011;65265;53.200;6.080;2023-04-24T23:22:40;12.77;;;1.23;;
76433;SDS011;65265;53.200;6.080;2023-04-24T23:27:31;10.23;;;1.00;;
76433;SDS011;65265;53.200;6.080;2023-04-24T23:32:25;10.85;;;1.35;;
76433;SDS011;65265;53.200;6.080;2023-04-24T23:37:16;5.20;;;1.55;;
76433;SDS011;65265;53.200;6.080;2023-04-24T23:42:08;9.07;;;2.17;;
76433;SDS011;65265;53.200;6.080;2023-04-24T23:46:59;7.75;;;1.85;;
76433;SDS011;65265;53.200;6.080;2023-04-24T23:51:53;10.80;;;1.55;;
76433;SDS011;65265;53.200;6.080;2023-04-24T23:56:45;6.18;;;1.05;;
